createdAt,value
2019-02-23T00:01:51.658Z,26.93
2019-02-23T00:04:22.537Z,25.27
2019-02-23T00:06:53.582Z,26.87
2019-02-23T00:09:24.957Z,27.87
2019-02-23T00:11:56.242Z,26.60
2019-02-23T00:14:27.106Z,26.47
2019-02-23T00:16:58.005Z,25.60
2019-02-23T00:19:28.934Z,29.63
2019-02-23T00:22:01.111Z,27.23
2019-02-23T00:24:31.981Z,28.43
2019-02-23T00:27:02.816Z,28.70
2019-02-23T00:29:33.860Z,28.40
2019-02-23T00:32:07.389Z,28.27
2019-02-23T00:34:39.865Z,28.87
2019-02-23T00:37:12.387Z,27.27
2019-02-23T00:39:43.401Z,27.83
2019-02-23T00:42:17.706Z,26.97
2019-02-23T00:44:48.771Z,27.20
2019-02-23T00:47:20.227Z,30.10
2019-02-23T00:49:50.950Z,29.97
2019-02-23T00:52:21.587Z,29.57
2019-02-23T00:54:53.035Z,29.00
2019-02-23T01:01:41.335Z,31.07
2019-02-23T01:04:13.221Z,29.30
2019-02-23T01:06:44.116Z,29.47
2019-02-23T01:09:15.680Z,29.87
2019-02-23T01:11:46.919Z,30.37
2019-02-23T01:14:19.204Z,29.57
2019-02-23T01:16:51.684Z,29.47
2019-02-23T01:19:22.663Z,28.93
2019-02-23T01:21:53.425Z,29.70
2019-02-23T01:24:24.513Z,31.40
2019-02-23T01:26:56.315Z,32.40
2019-02-23T01:29:27.450Z,28.60
2019-02-23T01:31:59.381Z,30.90
2019-02-23T01:34:30.458Z,29.37
2019-02-23T01:37:01.348Z,28.70
2019-02-23T01:39:31.985Z,27.17
2019-02-23T01:42:03.106Z,31.10
2019-02-23T01:44:34.239Z,31.27
2019-02-23T01:47:05.148Z,30.70
2019-02-23T01:49:35.843Z,32.03
2019-02-23T01:52:07.210Z,29.10
2019-02-23T01:54:40.515Z,31.37
2019-02-23T01:57:11.163Z,30.33
2019-02-23T01:59:41.858Z,30.10
2019-02-23T02:02:13.091Z,31.63
2019-02-23T02:04:44.266Z,30.00
2019-02-23T02:07:15.169Z,30.70
2019-02-23T02:09:48.850Z,29.87
2019-02-23T02:12:20.777Z,31.30
2019-02-23T02:14:51.755Z,29.30
2019-02-23T02:17:22.900Z,33.17
2019-02-23T02:19:56.472Z,34.30
2019-02-23T02:22:27.202Z,31.30
2019-02-23T02:24:58.290Z,30.10
2019-02-23T02:27:29.348Z,32.10
2019-02-23T02:30:00.970Z,30.33
2019-02-23T02:32:32.648Z,32.47
2019-02-23T02:35:03.870Z,30.50
2019-02-23T02:37:34.935Z,31.33
2019-02-23T02:40:05.992Z,32.10
2019-02-23T02:42:36.659Z,32.70
2019-02-23T02:45:09.364Z,33.07
2019-02-23T02:47:40.949Z,35.50
2019-02-23T02:50:23.946Z,35.03
2019-02-23T02:52:45.490Z,34.87
2019-02-23T02:55:16.494Z,34.10
2019-02-23T02:57:48.702Z,33.60
2019-02-23T03:00:20.107Z,32.33
2019-02-23T03:02:51.383Z,35.03
2019-02-23T03:05:23.705Z,31.70
2019-02-23T03:07:54.650Z,30.77
2019-02-23T03:10:25.934Z,30.77
2019-02-23T03:12:57.392Z,31.27
2019-02-23T03:15:28.441Z,30.47
2019-02-23T03:17:59.184Z,30.03
2019-02-23T03:20:36.763Z,27.17
2019-02-23T03:23:02.586Z,28.67
2019-02-23T03:25:33.308Z,29.33
2019-02-23T03:28:04.201Z,28.33
2019-02-23T03:30:34.816Z,28.17
2019-02-23T03:33:05.562Z,27.70
2019-02-23T03:35:36.147Z,27.63
2019-02-23T03:38:08.159Z,29.00
2019-02-23T03:40:38.901Z,28.10
2019-02-23T03:43:10.302Z,27.80
2019-02-23T03:45:40.955Z,28.17
2019-02-23T03:48:12.447Z,25.73
2019-02-23T03:50:48.944Z,27.17
2019-02-23T03:53:16.021Z,25.67
2019-02-23T03:55:47.575Z,27.13
2019-02-23T03:58:18.434Z,27.20
2019-02-23T04:00:49.865Z,30.17
2019-02-23T04:03:21.791Z,29.20
2019-02-23T04:05:53.742Z,28.13
2019-02-23T04:08:26.222Z,28.33
2019-02-23T04:10:56.850Z,27.67
2019-02-23T04:13:28.227Z,26.60
2019-02-23T04:15:59.485Z,27.37
2019-02-23T04:18:30.822Z,29.77
2019-02-23T04:21:05.523Z,26.73
2019-02-23T04:23:36.527Z,28.50
2019-02-23T04:26:07.929Z,30.37
2019-02-23T04:28:38.580Z,26.80
2019-02-23T04:31:10.497Z,26.00
2019-02-23T04:33:41.625Z,27.70
2019-02-23T04:36:12.348Z,29.10
2019-02-23T04:38:43.059Z,28.67
2019-02-23T04:41:14.042Z,32.03
2019-02-23T04:43:45.015Z,33.90
2019-02-23T04:46:16.368Z,31.37
2019-02-23T04:48:47.946Z,32.37
2019-02-23T04:51:19.397Z,32.10
2019-02-23T04:53:51.361Z,35.50
2019-02-23T04:56:22.546Z,34.70
2019-02-23T04:58:53.454Z,36.23
2019-02-23T05:01:24.344Z,36.27
2019-02-23T05:03:55.307Z,34.57
2019-02-23T05:06:26.104Z,32.40
2019-02-23T05:08:56.747Z,34.73
2019-02-23T05:11:27.864Z,33.07
2019-02-23T05:13:58.573Z,32.80
2019-02-23T05:16:29.791Z,34.83
2019-02-23T05:19:01.010Z,35.97
2019-02-23T05:21:32.609Z,39.00
2019-02-23T05:24:03.816Z,35.67
2019-02-23T05:26:34.555Z,34.33
2019-02-23T05:29:05.656Z,38.20
2019-02-23T05:31:36.656Z,36.20
2019-02-23T05:34:08.583Z,38.10
2019-02-23T05:36:39.429Z,35.77
2019-02-23T05:39:10.857Z,34.70
2019-02-23T05:41:42.274Z,38.10
2019-02-23T05:44:13.340Z,37.93
2019-02-23T05:46:45.238Z,38.83
2019-02-23T05:49:16.908Z,34.93
2019-02-23T05:51:48.274Z,34.87
2019-02-23T05:54:20.106Z,34.80
2019-02-23T05:56:50.987Z,34.53
2019-02-23T05:59:23.384Z,38.97
2019-02-23T06:01:54.696Z,38.40
2019-02-23T06:04:25.692Z,43.13
2019-02-23T06:06:56.763Z,39.90
2019-02-23T06:09:27.540Z,29.60
2019-02-23T06:11:59.649Z,31.40
2019-02-23T06:14:31.065Z,41.87
2019-02-23T06:17:04.065Z,32.47
2019-02-23T06:19:34.820Z,32.70
2019-02-23T06:22:05.558Z,36.90
2019-02-23T06:24:36.904Z,38.70
2019-02-23T06:27:08.224Z,41.80
2019-02-23T06:29:39.247Z,39.20
2019-02-23T06:32:09.862Z,38.90
2019-02-23T06:34:40.978Z,37.90
2019-02-23T06:37:12.380Z,38.77
2019-02-23T06:39:43.185Z,38.43
2019-02-23T06:42:14.482Z,38.83
2019-02-23T06:44:45.820Z,159.10
2019-02-23T06:47:17.369Z,60.43
2019-02-23T06:49:49.130Z,44.63
2019-02-23T06:52:20.389Z,37.70
2019-02-23T06:54:51.653Z,45.43
2019-02-23T06:57:22.716Z,45.07
2019-02-23T06:59:53.646Z,45.80
2019-02-23T07:02:24.471Z,43.73
2019-02-23T07:04:55.407Z,41.07
2019-02-23T07:07:26.306Z,39.93
2019-02-23T07:09:56.854Z,42.17
2019-02-23T07:12:28.345Z,38.97
2019-02-23T07:14:59.694Z,43.00
2019-02-23T07:17:30.715Z,46.30
2019-02-23T07:20:01.467Z,41.10
2019-02-23T07:22:33.734Z,45.63
2019-02-23T07:25:04.575Z,44.50
2019-02-23T07:27:35.051Z,42.53
2019-02-23T07:30:08.194Z,38.33
2019-02-23T07:32:40.524Z,37.40
2019-02-23T07:35:11.676Z,43.00
2019-02-23T07:37:42.375Z,43.70
2019-02-23T07:40:15.059Z,40.33
2019-02-23T07:42:46.439Z,38.60
2019-02-23T07:45:17.039Z,40.40
2019-02-23T07:47:48.221Z,44.07
2019-02-23T07:50:19.141Z,50.53
2019-02-23T07:52:50.888Z,61.63
2019-02-23T07:55:22.327Z,43.90
2019-02-23T07:57:53.440Z,42.70
2019-02-23T08:00:27.362Z,37.23
2019-02-23T08:02:58.831Z,34.03
2019-02-23T08:05:30.001Z,36.40
2019-02-23T08:08:00.920Z,33.43
2019-02-23T08:10:31.863Z,48.80
2019-02-23T08:13:03.096Z,38.60
2019-02-23T08:15:34.115Z,32.70
2019-02-23T08:18:04.988Z,30.97
2019-02-23T08:20:36.094Z,29.97
2019-02-23T08:23:08.142Z,25.87
2019-02-23T08:25:39.074Z,29.60
2019-02-23T08:28:09.948Z,24.40
2019-02-23T08:30:40.581Z,24.37
2019-02-23T08:33:11.863Z,26.20
2019-02-23T08:35:42.635Z,25.30
2019-02-23T08:38:13.767Z,25.30
2019-02-23T08:40:44.969Z,23.37
2019-02-23T08:43:16.180Z,22.87
2019-02-23T08:45:47.144Z,24.27
2019-02-23T08:48:18.499Z,24.60
2019-02-23T08:50:49.147Z,25.77
2019-02-23T08:53:20.753Z,23.90
2019-02-23T08:55:51.573Z,23.60
2019-02-23T08:58:23.369Z,22.90
2019-02-23T09:00:54.469Z,24.53
2019-02-23T09:03:25.628Z,23.23
2019-02-23T09:05:56.959Z,22.30
2019-02-23T09:08:28.398Z,22.23
2019-02-23T09:10:59.427Z,20.30
2019-02-23T09:13:30.675Z,21.60
2019-02-23T09:16:01.677Z,20.67
2019-02-23T09:18:33.116Z,21.50
2019-02-23T09:21:03.997Z,21.53
2019-02-23T09:23:35.094Z,21.27
2019-02-23T09:26:06.260Z,21.77
2019-02-23T09:28:38.482Z,18.70
2019-02-23T09:31:09.926Z,18.60
2019-02-23T09:33:40.863Z,19.97
2019-02-23T09:36:11.649Z,18.73
2019-02-23T09:38:42.674Z,18.00
2019-02-23T09:41:13.902Z,17.90
2019-02-23T09:43:45.068Z,17.73
2019-02-23T09:46:15.211Z,17.13
2019-02-23T09:48:45.933Z,19.70
2019-02-23T09:51:17.382Z,17.90
2019-02-23T09:53:48.715Z,19.60
2019-02-23T09:56:19.332Z,20.70
2019-02-23T09:58:51.537Z,21.27
2019-02-23T10:01:22.490Z,21.27
2019-02-23T10:03:53.601Z,19.77
2019-02-23T10:06:25.069Z,19.53
2019-02-23T10:08:56.067Z,21.67
2019-02-23T10:11:27.384Z,22.20
2019-02-23T10:13:57.948Z,20.67
2019-02-23T10:16:29.663Z,20.90
2019-02-23T10:19:01.811Z,21.10
2019-02-23T10:21:33.591Z,19.77
2019-02-23T10:24:04.478Z,20.43
2019-02-23T10:26:36.357Z,19.77
2019-02-23T10:29:07.934Z,20.03
2019-02-23T10:31:44.929Z,20.70
2019-02-23T10:34:15.931Z,22.57
2019-02-23T10:36:46.908Z,20.10
2019-02-23T10:39:18.204Z,20.00
2019-02-23T10:41:49.314Z,19.47
2019-02-23T10:44:21.284Z,19.73
2019-02-23T10:46:52.224Z,20.27
2019-02-23T10:49:25.461Z,19.90
2019-02-23T10:51:58.314Z,20.87
2019-02-23T10:54:29.803Z,19.43
2019-02-23T10:57:01.020Z,19.67
2019-02-23T10:59:31.902Z,19.73
2019-02-23T11:02:03.842Z,20.40
2019-02-23T11:04:35.365Z,21.17
2019-02-23T11:07:07.058Z,19.70
2019-02-23T11:09:38.263Z,19.87
2019-02-23T11:12:10.363Z,19.97
2019-02-23T11:14:41.469Z,20.73
2019-02-23T11:17:14.243Z,20.47
2019-02-23T11:19:45.543Z,19.83
2019-02-23T11:22:17.095Z,19.87
2019-02-23T11:24:48.160Z,18.60
2019-02-23T11:27:19.553Z,19.03
2019-02-23T11:29:50.797Z,18.80
2019-02-23T11:32:21.593Z,17.83
2019-02-23T11:34:52.399Z,17.60
2019-02-23T11:37:23.284Z,17.47
2019-02-23T11:39:54.503Z,18.83
2019-02-23T11:42:25.135Z,18.27
2019-02-23T11:44:55.717Z,18.40
2019-02-23T11:47:26.864Z,18.07
2019-02-23T11:49:57.584Z,18.80
2019-02-23T11:52:28.463Z,18.40
2019-02-23T11:55:00.343Z,18.17
2019-02-23T11:57:32.229Z,19.97
2019-02-23T12:00:04.618Z,19.20
2019-02-23T12:02:36.012Z,20.63
2019-02-23T12:05:09.494Z,19.00
2019-02-23T12:07:44.155Z,19.50
2019-02-23T12:10:16.205Z,18.90
2019-02-23T12:12:47.624Z,19.40
2019-02-23T12:15:18.503Z,18.57
2019-02-23T12:17:49.447Z,19.60
2019-02-23T12:20:20.537Z,17.90
2019-02-23T12:22:51.755Z,17.10
2019-02-23T12:25:22.977Z,18.50
2019-02-23T12:27:54.081Z,16.90
2019-02-23T12:30:25.223Z,17.20
2019-02-23T12:32:56.657Z,17.43
2019-02-23T12:35:27.542Z,17.50
2019-02-23T12:37:58.540Z,17.80
2019-02-23T12:40:30.200Z,18.00
2019-02-23T12:43:02.189Z,17.10
2019-02-23T12:45:33.536Z,17.03
2019-02-23T12:48:06.095Z,17.90
2019-02-23T12:50:37.162Z,17.23
2019-02-23T12:53:08.663Z,17.90
2019-02-23T12:55:40.987Z,18.37
2019-02-23T12:58:12.257Z,17.80
2019-02-23T13:00:43.892Z,17.17
2019-02-23T13:03:15.889Z,18.47
2019-02-23T13:05:47.945Z,18.70
2019-02-23T13:08:51.742Z,18.50
2019-02-23T13:11:26.300Z,18.30
2019-02-23T13:14:29.037Z,18.47
2019-02-23T13:17:25.302Z,18.30
2019-02-23T13:20:31.910Z,18.30
2019-02-23T13:23:34.843Z,18.73
2019-02-23T13:26:33.956Z,19.10
2019-02-23T13:29:15.622Z,18.80
2019-02-23T13:32:18.984Z,17.40
2019-02-23T13:35:23.037Z,19.00
2019-02-23T13:38:17.034Z,18.60
2019-02-23T13:41:20.287Z,19.63
2019-02-23T13:44:19.476Z,19.03
2019-02-23T13:47:31.223Z,17.47
2019-02-23T13:50:36.259Z,16.30
2019-02-23T13:53:44.164Z,16.77
2019-02-23T13:57:07.530Z,15.67
2019-02-23T14:00:14.825Z,18.20
2019-02-23T14:03:23.540Z,18.20
2019-02-23T14:06:25.610Z,17.60
2019-02-23T14:09:20.789Z,17.83
2019-02-23T14:12:03.743Z,17.97
2019-02-23T14:14:59.334Z,22.20
2019-02-23T14:18:09.609Z,16.97
2019-02-23T14:21:04.390Z,17.27
2019-02-23T14:24:14.475Z,16.47
2019-02-23T14:27:26.680Z,18.87
2019-02-23T14:30:34.899Z,19.17
2019-02-23T14:33:35.194Z,19.20
2019-02-23T14:36:34.425Z,18.63
2019-02-23T14:39:57.383Z,19.10
2019-02-23T14:43:11.990Z,18.80
2019-02-23T14:46:11.640Z,17.57
2019-02-23T14:49:11.025Z,19.97
2019-02-23T14:52:27.666Z,22.13
2019-02-23T14:55:31.366Z,25.43
2019-02-23T14:58:49.478Z,19.37
2019-02-23T15:01:43.395Z,20.20
2019-02-23T15:04:48.964Z,20.10
2019-02-23T15:08:00.757Z,21.70
2019-02-23T15:11:15.198Z,21.00
2019-02-23T15:14:16.651Z,19.30
2019-02-23T15:17:34.610Z,18.70
2019-02-23T15:20:25.442Z,20.47
2019-02-23T15:23:16.323Z,19.17
2019-02-23T15:26:28.982Z,18.73
2019-02-23T15:29:29.745Z,19.47
2019-02-23T15:32:52.489Z,20.87
2019-02-23T15:36:08.219Z,19.90
2019-02-23T15:39:28.669Z,24.07
2019-02-23T15:42:55.722Z,20.10
2019-02-23T15:46:03.296Z,20.27
2019-02-23T15:49:30.677Z,23.13
2019-02-23T15:52:03.822Z,22.70
2019-02-23T15:54:36.054Z,20.80
2019-02-23T15:57:26.465Z,21.50
2019-02-23T15:59:58.183Z,18.50
2019-02-23T16:02:30.342Z,19.07
2019-02-23T16:05:02.181Z,24.10
2019-02-23T16:07:34.381Z,18.73
2019-02-23T16:10:06.211Z,18.27
2019-02-23T16:12:38.264Z,18.00
2019-02-23T16:15:09.749Z,18.93
2019-02-23T16:17:41.561Z,19.43
2019-02-23T16:20:12.922Z,21.27
2019-02-23T16:22:44.347Z,19.63
2019-02-23T16:25:17.743Z,20.90
2019-02-23T16:27:50.078Z,21.07
2019-02-23T16:30:22.585Z,21.10
2019-02-23T16:32:54.583Z,19.90
2019-02-23T16:35:26.412Z,21.10
2019-02-23T16:37:59.205Z,19.93
2019-02-23T16:40:41.801Z,20.33
2019-02-23T16:43:24.785Z,19.20
2019-02-23T16:45:56.974Z,19.60
2019-02-23T16:48:28.889Z,20.10
2019-02-23T16:51:01.077Z,18.77
2019-02-23T16:53:33.404Z,18.80
2019-02-23T16:56:04.624Z,19.17
2019-02-23T16:58:36.366Z,19.97
2019-02-23T17:01:08.120Z,20.20
2019-02-23T17:03:39.249Z,20.03
2019-02-23T17:06:11.707Z,19.30
2019-02-23T17:08:43.246Z,20.50
2019-02-23T17:11:15.022Z,20.33
2019-02-23T17:13:46.939Z,21.33
2019-02-23T17:16:18.588Z,20.63
2019-02-23T17:18:50.478Z,20.03
2019-02-23T17:21:22.078Z,18.83
2019-02-23T17:23:53.752Z,20.03
2019-02-23T17:26:26.861Z,20.00
2019-02-23T17:28:58.707Z,19.33
2019-02-23T17:31:30.630Z,22.93
2019-02-23T17:34:02.468Z,18.73
2019-02-23T17:36:34.863Z,19.17
2019-02-23T17:39:07.192Z,20.77
2019-02-23T17:41:38.918Z,20.37
2019-02-23T17:44:10.036Z,20.33
2019-02-23T17:46:41.677Z,20.10
2019-02-23T17:49:13.592Z,19.93
2019-02-23T17:51:44.788Z,20.60
2019-02-23T17:54:16.702Z,19.67
2019-02-23T17:56:49.851Z,20.90
2019-02-23T17:59:20.671Z,20.20
2019-02-23T18:01:53.084Z,22.50
2019-02-23T18:04:24.137Z,21.27
2019-02-23T18:06:55.377Z,20.37
2019-02-23T18:09:27.538Z,20.90
2019-02-23T18:11:58.483Z,22.20
2019-02-23T18:14:29.576Z,25.80
2019-02-23T18:17:00.868Z,28.43
2019-02-23T18:19:32.071Z,27.70
2019-02-23T18:22:03.026Z,26.30
2019-02-23T18:24:34.726Z,25.77
2019-02-23T18:27:05.605Z,25.80
2019-02-23T18:29:37.507Z,25.53
2019-02-23T18:32:10.523Z,26.97
2019-02-23T18:34:41.833Z,25.47
2019-02-23T18:37:12.753Z,27.50
2019-02-23T18:39:43.695Z,26.90
2019-02-23T18:42:14.953Z,27.57
2019-02-23T18:44:45.837Z,27.47
2019-02-23T18:47:17.965Z,26.93
2019-02-23T18:49:49.556Z,27.57
2019-02-23T18:52:21.517Z,25.97
2019-02-23T18:54:52.295Z,27.17
2019-02-23T18:57:23.235Z,26.80
2019-02-23T18:59:54.370Z,30.77
2019-02-23T19:02:25.420Z,31.20
2019-02-23T19:04:56.252Z,28.70
2019-02-23T19:07:27.062Z,26.23
2019-02-23T19:09:58.011Z,23.30
2019-02-23T19:12:28.952Z,28.30
2019-02-23T19:15:00.575Z,22.40
2019-02-23T19:17:31.430Z,25.40
2019-02-23T19:20:06.818Z,22.20
2019-02-23T19:22:37.911Z,23.83
2019-02-23T19:25:09.529Z,25.50
2019-02-23T19:27:40.506Z,27.33
2019-02-23T19:30:14.566Z,25.90
2019-02-23T19:32:45.351Z,26.20
2019-02-23T19:35:16.186Z,25.57
2019-02-23T19:37:47.660Z,27.30
2019-02-23T19:40:18.449Z,25.23
2019-02-23T19:42:49.410Z,25.30
2019-02-23T19:45:20.368Z,26.60
2019-02-23T19:47:53.243Z,24.17
2019-02-23T19:50:27.638Z,22.63
2019-02-23T19:52:59.311Z,22.40
2019-02-23T19:55:30.205Z,23.17
2019-02-23T19:58:01.261Z,20.97
2019-02-23T20:00:32.052Z,23.23
2019-02-23T20:03:03.118Z,24.23
2019-02-23T20:05:34.115Z,22.50
2019-02-23T20:08:05.073Z,24.30
2019-02-23T20:10:36.332Z,24.53
2019-02-23T20:13:07.958Z,23.77
2019-02-23T20:15:40.029Z,22.77
2019-02-23T20:18:11.079Z,22.80
2019-02-23T20:20:43.520Z,24.07
2019-02-23T20:23:17.141Z,23.90
2019-02-23T20:25:49.281Z,21.87
2019-02-23T20:28:22.703Z,22.93
2019-02-23T20:30:56.184Z,22.97
2019-02-23T20:33:28.317Z,20.77
2019-02-23T20:36:00.377Z,22.00
2019-02-23T20:38:32.346Z,20.30
2019-02-23T20:41:04.904Z,20.57
2019-02-23T20:43:36.936Z,20.10
2019-02-23T20:46:13.034Z,20.33
2019-02-23T20:48:44.823Z,19.40
2019-02-23T20:51:18.183Z,20.80
2019-02-23T20:53:50.862Z,24.00
2019-02-23T20:56:22.986Z,23.83
2019-02-23T20:58:55.827Z,21.50
2019-02-23T21:01:28.008Z,21.90
2019-02-23T21:04:00.344Z,22.03
2019-02-23T21:06:31.937Z,21.00
2019-02-23T21:09:03.150Z,23.93
2019-02-23T21:11:34.902Z,21.40
2019-02-23T21:14:06.762Z,21.57
2019-02-23T21:16:39.942Z,21.53
2019-02-23T21:19:11.863Z,20.13
2019-02-23T21:21:43.803Z,23.20
2019-02-23T21:24:16.863Z,21.10
2019-02-23T21:26:49.619Z,21.43
2019-02-23T21:29:21.859Z,22.60
2019-02-23T21:31:53.619Z,21.33
2019-02-23T21:34:26.510Z,20.87
2019-02-23T21:37:01.186Z,23.73
2019-02-23T21:39:33.589Z,22.97
2019-02-23T21:42:05.049Z,22.10
2019-02-23T21:44:36.245Z,21.97
2019-02-23T21:47:08.023Z,22.80
2019-02-23T21:49:39.543Z,22.50
2019-02-23T21:52:12.055Z,23.83
2019-02-23T21:54:44.309Z,22.77
2019-02-23T21:57:21.940Z,23.83
2019-02-23T21:59:50.160Z,23.50
2019-02-23T22:02:21.677Z,26.50
2019-02-23T22:04:53.366Z,23.53
2019-02-23T22:07:25.095Z,25.67
2019-02-23T22:09:58.233Z,25.30
2019-02-23T22:12:29.943Z,25.27
2019-02-23T22:15:01.301Z,25.83
2019-02-23T22:17:33.811Z,25.33
2019-02-23T22:20:07.672Z,26.00
2019-02-23T22:22:40.867Z,24.90
2019-02-23T22:25:12.559Z,25.43
2019-02-23T22:27:43.648Z,27.33
2019-02-23T22:30:14.406Z,28.67
2019-02-23T22:32:45.080Z,29.70
2019-02-23T22:35:16.168Z,27.27
2019-02-23T22:37:47.494Z,29.50
2019-02-23T22:40:20.669Z,29.30
2019-02-23T22:42:51.739Z,29.40
2019-02-23T22:45:22.934Z,29.03
2019-02-23T22:47:53.547Z,28.00
2019-02-23T22:50:26.290Z,28.70
2019-02-23T22:52:57.535Z,30.00
2019-02-23T22:55:28.829Z,28.80
2019-02-23T22:57:59.520Z,32.10
2019-02-23T23:00:48.950Z,31.60
2019-02-23T23:03:19.680Z,28.47
2019-02-23T23:05:50.593Z,31.07
2019-02-23T23:08:21.303Z,30.27
2019-02-23T23:10:54.685Z,31.20
2019-02-23T23:13:26.718Z,31.17
2019-02-23T23:15:58.374Z,32.70
2019-02-23T23:18:28.733Z,33.47
2019-02-23T23:20:59.892Z,35.83
2019-02-23T23:23:31.068Z,32.60
2019-02-23T23:26:02.064Z,35.67
2019-02-23T23:28:32.862Z,34.07
2019-02-23T23:31:03.778Z,36.07
2019-02-23T23:33:35.231Z,33.90
2019-02-23T23:36:06.553Z,30.40
2019-02-23T23:38:37.526Z,35.47
2019-02-23T23:41:09.985Z,30.40
2019-02-23T23:43:41.549Z,32.37
2019-02-23T23:46:12.984Z,34.27
2019-02-23T23:48:44.644Z,35.07
2019-02-23T23:51:16.112Z,33.90
2019-02-23T23:53:47.417Z,35.40
2019-02-23T23:56:19.023Z,36.87
2019-02-23T23:58:50.594Z,34.07
